Time;durP1;ratioP1;P1;durP2;ratioP2;P2;SDS_P1;SDS_P2;PMS_P1;PMS_P2;Temp;Humidity;BMP_temperature;BMP_pressure;BME280_temperature;BME280_humidity;BME280_pressure;Samples;Min_cycle;Max_cycle;Signal;HPM_P1;HPM_P2
2023/04/07 00:00:52;;;;;;;;;;;;;;;7.57;44.05;99566.00;4992976;28;19913;-86
2023/04/07 00:03:18;;;;;;;;;;;;;;;7.61;44.06;99569.47;4976594;28;19913;-86
2023/04/07 00:05:43;;;;;;;;;;;;;;;7.47;44.64;99580.88;4993094;28;20379;-87
2023/04/07 00:08:08;;;;;;;;;;;;;;;7.42;44.39;99580.03;4992722;28;19913;-87
2023/04/07 00:10:34;;;;;;;;;;;;;;;7.44;44.65;99574.78;4992830;28;19924;-86
2023/04/07 00:12:59;;;;;;;;;;;;;;;7.33;44.33;99577.47;4991686;28;19996;-87
2023/04/07 00:15:25;;;;;;;;;;;;;;;7.30;43.89;99575.72;4993091;28;20021;-86
2023/04/07 00:17:50;;;;;;;;;;;;;;;7.20;44.56;99574.00;4992261;28;19949;-88
2023/04/07 00:20:16;;;;;;;;;;;;;;;7.26;43.71;99571.38;4992688;28;19914;-87
2023/04/07 00:22:41;;;;;;;;;;;;;;;7.23;43.90;99575.72;4986390;28;19917;-88
2023/04/07 00:25:07;;;;;;;;;;;;;;;7.20;44.22;99570.50;4973540;28;20012;-87
2023/04/07 00:27:32;;;;;;;;;;;;;;;7.40;44.35;99578.28;4992494;28;19917;-87
2023/04/07 00:29:58;;;;;;;;;;;;;;;7.32;44.20;99575.69;4993397;28;19913;-87
2023/04/07 00:32:23;;;;;;;;;;;;;;;7.35;43.31;99576.59;4992478;28;20009;-86
2023/04/07 00:34:48;;;;;;;;;;;;;;;7.28;42.69;99569.59;4991872;28;20363;-86
2023/04/07 00:37:14;;;;;;;;;;;;;;;7.31;42.47;99569.59;4992477;28;20365;-86
2023/04/07 00:39:39;;;;;;;;;;;;;;;7.19;42.56;99577.50;4992733;28;19971;-86
2023/04/07 00:42:05;;;;;;;;;;;;;;;7.27;42.26;99580.97;4991136;28;19913;-87
2023/04/07 00:44:31;;;;;;;;;;;;;;;7.08;43.00;99572.28;4990779;28;19914;-87
2023/04/07 00:46:56;;;;;;;;;;;;;;;7.25;42.44;99579.25;4992253;28;20263;-85
2023/04/07 00:49:21;;;;;;;;;;;;;;;7.30;42.46;99580.09;4992312;28;19972;-85
2023/04/07 00:51:47;;;;;;;;;;;;;;;7.18;42.57;99575.75;4979639;28;20435;-86
2023/04/07 00:54:12;;;;;;;;;;;;;;;7.32;42.12;99584.47;4991362;28;19933;-86
2023/04/07 00:56:37;;;;;;;;;;;;;;;7.52;41.48;99580.88;4991831;28;19917;-86
2023/04/07 00:59:03;;;;;;;;;;;;;;;7.60;41.85;99579.09;4990941;28;19979;-87
2023/04/07 01:01:39;;;;;;;;;;;;;;;7.68;41.88;99582.56;4991514;28;19921;-86
2023/04/07 01:04:08;;;;;;;;;;;;;;;7.55;41.51;99572.97;4992020;28;19914;-87
2023/04/07 01:06:36;;;;;;;;;;;;;;;7.26;41.94;99576.63;4977504;28;19925;-87
2023/04/07 01:09:04;;;;;;;;;;;;;;;7.27;42.29;99574.84;4990173;28;19925;-86
2023/04/07 01:11:35;;;;;;;;;;;;;;;7.03;42.38;99578.41;4972427;28;20306;-86
2023/04/07 01:14:00;;;;;;;;;;;;;;;6.98;41.68;99581.03;4990961;28;19924;-86
2023/04/07 01:16:28;;;;;;;;;;;;;;;7.12;42.19;99575.75;4991049;28;19917;-86
2023/04/07 01:18:56;;;;;;;;;;;;;;;6.90;42.43;99575.81;4984142;28;19913;-86
2023/04/07 01:21:23;;;;;;;;;;;;;;;7.07;41.84;99572.28;4984313;28;20379;-86
2023/04/07 01:23:54;;;;;;;;;;;;;;;6.99;42.54;99575.78;4991806;28;20414;-86
2023/04/07 01:26:31;;;;;;;;;;;;;;;6.87;42.22;99580.22;4987926;28;19977;-86
2023/04/07 01:29:15;;;;;;;;;;;;;;;6.87;42.29;99578.44;4981358;28;19917;-89
2023/04/07 01:31:40;;;;;;;;;;;;;;;6.89;42.39;99579.34;4990535;28;20327;-87
2023/04/07 01:34:08;;;;;;;;;;;;;;;6.87;43.24;99581.06;4988478;28;19924;-85
2023/04/07 01:36:34;;;;;;;;;;;;;;;6.70;42.77;99577.59;4991208;28;20478;-84
2023/04/07 01:39:00;;;;;;;;;;;;;;;6.81;43.38;99588.94;4991255;28;20431;-85
2023/04/07 01:41:25;;;;;;;;;;;;;;;6.58;43.17;99595.09;4991185;28;19929;-86
2023/04/07 01:43:52;;;;;;;;;;;;;;;6.73;43.11;99593.34;4973717;28;20390;-86
2023/04/07 01:46:17;;;;;;;;;;;;;;;6.52;43.41;99586.34;4991481;28;20383;-86
2023/04/07 01:48:43;;;;;;;;;;;;;;;6.68;43.73;99593.34;4990613;28;19948;-86
2023/04/07 01:51:10;;;;;;;;;;;;;;;6.42;44.39;99585.47;4991184;28;20379;-85
2023/04/07 01:53:37;;;;;;;;;;;;;;;6.49;44.01;99594.22;4989538;28;20362;-85
2023/04/07 01:56:02;;;;;;;;;;;;;;;6.37;44.17;99589.84;4991323;28;19936;-85
2023/04/07 01:58:28;;;;;;;;;;;;;;;6.49;43.81;99589.84;4986819;28;20390;-85
2023/04/07 02:00:53;;;;;;;;;;;;;;;6.39;43.79;99588.09;4989225;28;20383;-85
2023/04/07 02:03:51;;;;;;;;;;;;;;;6.31;43.76;99587.22;4989627;28;20430;-86
2023/04/07 02:06:18;;;;;;;;;;;;;;;6.34;43.98;99580.25;4930949;29;19922;-85
2023/04/07 02:08:46;;;;;;;;;;;;;;;6.44;43.56;99589.84;4914613;29;20653;-85
2023/04/07 02:11:14;;;;;;;;;;;;;;;6.49;44.21;99583.72;4930705;29;20446;-84
2023/04/07 02:13:41;;;;;;;;;;;;;;;6.63;43.83;99588.09;4930806;29;19914;-84
2023/04/07 02:16:07;;;;;;;;;;;;;;;6.50;44.03;99586.34;4930700;29;19926;-85
2023/04/07 02:18:33;;;;;;;;;;;;;;;6.35;44.02;99584.63;4930691;29;19938;-85
2023/04/07 02:21:00;;;;;;;;;;;;;;;6.33;43.76;99588.97;4930629;29;19919;-84
2023/04/07 02:23:25;;;;;;;;;;;;;;;6.33;44.29;99588.97;4930626;29;20006;-84
2023/04/07 02:25:50;;;;;;;;;;;;;;;6.22;44.69;99586.34;4932555;29;20119;-84
2023/04/07 02:28:16;;;;;;;;;;;;;;;6.20;44.67;99588.09;4934368;29;19965;-84
2023/04/07 02:30:41;;;;;;;;;;;;;;;6.18;45.27;99589.84;4934746;29;20014;-84
2023/04/07 02:33:06;;;;;;;;;;;;;;;5.92;45.08;99595.00;4934261;29;20115;-84
2023/04/07 02:35:31;;;;;;;;;;;;;;;6.03;45.37;99595.91;4934784;29;19937;-84
2023/04/07 02:37:57;;;;;;;;;;;;;;;6.13;45.04;99599.41;4934830;29;20347;-85
2023/04/07 02:40:22;;;;;;;;;;;;;;;6.03;45.96;99598.53;4935063;29;19927;-83
2023/04/07 02:42:47;;;;;;;;;;;;;;;6.09;45.55;99602.94;4961056;28;19918;-83
2023/04/07 02:45:13;;;;;;;;;;;;;;;6.16;45.37;99599.41;4974863;28;19969;-84
2023/04/07 02:47:38;;;;;;;;;;;;;;;6.20;45.64;99595.09;4974632;28;20354;-84
2023/04/07 02:50:04;;;;;;;;;;;;;;;6.14;46.57;99602.94;4974110;28;19918;-85
2023/04/07 02:52:29;;;;;;;;;;;;;;;6.32;45.65;99589.84;4990045;28;19948;-85
2023/04/07 02:54:55;;;;;;;;;;;;;;;6.14;46.42;99589.84;4975075;28;19980;-85
2023/04/07 02:57:20;;;;;;;;;;;;;;;6.15;45.92;99584.59;4956552;28;20323;-85
2023/04/07 02:59:45;;;;;;;;;;;;;;;6.17;45.23;99585.47;4975060;28;19914;-84
2023/04/07 03:02:11;;;;;;;;;;;;;;;6.02;45.81;99598.53;4973664;28;19972;-84
2023/04/07 03:04:36;;;;;;;;;;;;;;;5.98;45.17;99596.78;4974962;28;19921;-84
2023/04/07 03:07:02;;;;;;;;;;;;;;;5.97;45.43;99590.66;4961178;28;20374;-84
2023/04/07 03:09:27;;;;;;;;;;;;;;;5.96;45.48;99596.72;4974614;28;20375;-84
2023/04/07 03:11:52;;;;;;;;;;;;;;;5.91;45.45;99601.97;4974034;28;19918;-85
2023/04/07 03:14:17;;;;;;;;;;;;;;;6.04;45.38;99597.69;4973256;28;19928;-86
2023/04/07 03:16:43;;;;;;;;;;;;;;;5.90;44.89;99594.09;4980485;28;19930;-86
2023/04/07 03:19:09;;;;;;;;;;;;;;;5.90;45.09;99592.38;4976379;28;20297;-88
2023/04/07 03:21:36;;;;;;;;;;;;;;;5.90;45.03;99597.63;4958845;28;19973;-88
2023/04/07 03:24:01;;;;;;;;;;;;;;;5.87;45.58;99596.72;4974080;28;20381;-87
2023/04/07 03:26:26;;;;;;;;;;;;;;;5.95;45.36;99595.00;4974110;28;19922;-86
2023/04/07 03:28:52;;;;;;;;;;;;;;;6.07;44.81;99600.31;4967760;28;20380;-86
2023/04/07 03:31:17;;;;;;;;;;;;;;;6.05;44.62;99602.03;4940763;28;19969;-87
2023/04/07 03:33:43;;;;;;;;;;;;;;;6.12;44.81;99604.66;4955954;28;20001;-86
2023/04/07 03:36:08;;;;;;;;;;;;;;;6.19;44.79;99604.66;4961207;28;19965;-85
2023/04/07 03:38:33;;;;;;;;;;;;;;;6.16;45.13;99602.03;4955345;28;19919;-85
2023/04/07 03:40:59;;;;;;;;;;;;;;;6.18;44.95;99602.03;4974667;28;20352;-84
2023/04/07 03:43:24;;;;;;;;;;;;;;;6.07;45.24;99610.78;4969271;28;19956;-85
2023/04/07 03:45:51;;;;;;;;;;;;;;;5.95;45.95;99608.09;4960876;28;19910;-85
2023/04/07 03:48:17;;;;;;;;;;;;;;;6.04;44.81;99609.88;4955770;28;19915;-84
2023/04/07 03:50:42;;;;;;;;;;;;;;;5.91;46.35;99614.19;4969443;28;20375;-85
2023/04/07 03:53:08;;;;;;;;;;;;;;;5.87;45.72;99615.94;4960991;28;19910;-85
2023/04/07 03:55:33;;;;;;;;;;;;;;;5.97;45.89;99611.63;4954780;28;19981;-87
2023/04/07 03:57:58;;;;;;;;;;;;;;;5.97;45.77;99618.63;4964416;28;19918;-83
2023/04/07 04:00:24;;;;;;;;;;;;;;;5.93;45.60;99617.69;4972807;28;19910;-86
2023/04/07 04:02:50;;;;;;;;;;;;;;;6.03;45.92;99624.72;4973107;28;20406;-88
2023/04/07 04:05:16;;;;;;;;;;;;;;;6.14;45.73;99623.88;4974015;28;20059;-87
2023/04/07 04:07:42;;;;;;;;;;;;;;;6.02;46.13;99632.56;4975192;28;19957;-87
2023/04/07 04:10:07;;;;;;;;;;;;;;;6.33;45.71;99630.88;5007709;28;20408;-86
2023/04/07 04:12:33;;;;;;;;;;;;;;;6.20;46.94;99634.38;4985630;28;20008;-83
2023/04/07 04:14:58;;;;;;;;;;;;;;;5.93;46.74;99628.16;4971893;28;20303;-84
2023/04/07 04:17:24;;;;;;;;;;;;;;;5.98;46.21;99633.44;4984082;28;19918;-83
2023/04/07 04:19:50;;;;;;;;;;;;;;;6.07;46.02;99636.06;4993264;28;19964;-83
2023/04/07 04:22:15;;;;;;;;;;;;;;;6.18;45.17;99634.38;4991813;28;19922;-84
2023/04/07 04:24:40;;;;;;;;;;;;;;;6.25;45.98;99637.88;4992613;28;19917;-84
2023/04/07 04:27:06;;;;;;;;;;;;;;;6.35;45.43;99650.13;4992410;28;20759;-86
2023/04/07 04:29:31;;;;;;;;;;;;;;;6.25;45.91;99637.88;4986264;28;20018;-86
2023/04/07 04:31:56;;;;;;;;;;;;;;;6.40;45.24;99648.38;4978029;28;20441;-89
2023/04/07 04:34:22;;;;;;;;;;;;;;;6.53;45.65;99646.63;4990421;28;20150;-92
2023/04/07 04:36:48;;;;;;;;;;;;;;;6.44;45.79;99646.63;4991242;28;19913;-91
2023/04/07 04:39:13;;;;;;;;;;;;;;;6.37;46.59;99650.97;4994077;28;19914;-92
2023/04/07 04:41:38;;;;;;;;;;;;;;;6.25;45.92;99651.81;4976087;28;20383;-89
2023/04/07 04:44:04;;;;;;;;;;;;;;;6.43;46.83;99652.75;4983786;28;19925;-90
2023/04/07 04:46:29;;;;;;;;;;;;;;;6.39;47.37;99651.00;4975504;28;20363;-90
2023/04/07 04:48:56;;;;;;;;;;;;;;;6.31;46.26;99637.88;4971540;28;19925;-89
2023/04/07 04:51:22;;;;;;;;;;;;;;;6.57;46.53;99658.88;4970938;28;20354;-91
2023/04/07 04:53:47;;;;;;;;;;;;;;;6.63;45.56;99669.34;4971759;28;19910;-88
2023/04/07 04:56:13;;;;;;;;;;;;;;;6.66;46.10;99660.63;4970524;28;19922;-89
2023/04/07 04:58:40;;;;;;;;;;;;;;;6.93;45.64;99662.34;4978811;28;19936;-92
2023/04/07 05:01:06;;;;;;;;;;;;;;;6.90;45.91;99662.34;4992825;28;19940;-88
2023/04/07 05:03:31;;;;;;;;;;;;;;;6.96;44.97;99664.97;4974580;28;19913;-86
2023/04/07 05:05:56;;;;;;;;;;;;;;;6.92;45.34;99665.88;4978055;28;20298;-87
2023/04/07 05:08:22;;;;;;;;;;;;;;;6.81;44.54;99676.38;4975856;28;20387;-90
2023/04/07 05:10:47;;;;;;;;;;;;;;;6.90;45.68;99675.47;4972279;28;20299;-89
2023/04/07 05:13:12;;;;;;;;;;;;;;;7.39;45.76;99673.66;4971960;28;20286;-91
2023/04/07 05:15:39;;;;;;;;;;;;;;;7.47;44.76;99678.00;4971096;28;19914;-90
2023/04/07 05:18:05;;;;;;;;;;;;;;;7.82;44.61;99682.28;4981236;28;19936;-89
2023/04/07 05:20:30;;;;;;;;;;;;;;;7.58;44.03;99688.47;4990678;28;19914;-89
2023/04/07 05:22:55;;;;;;;;;;;;;;;7.91;44.10;99683.09;4986201;28;19917;-88
2023/04/07 05:25:21;;;;;;;;;;;;;;;7.83;44.05;99691.00;4980294;28;19921;-88
2023/04/07 05:27:46;;;;;;;;;;;;;;;7.94;43.92;99689.25;4974421;28;20438;-88
2023/04/07 05:30:12;;;;;;;;;;;;;;;8.18;44.38;99684.75;4994144;28;19988;-86
2023/04/07 05:32:37;;;;;;;;;;;;;;;8.13;42.47;99691.78;4972965;28;19976;-88
2023/04/07 05:35:02;;;;;;;;;;;;;;;7.92;41.94;99690.13;4980853;28;20342;-88
2023/04/07 05:37:28;;;;;;;;;;;;;;;7.85;43.50;99691.91;4988940;28;20385;-87
2023/04/07 05:39:53;;;;;;;;;;;;;;;8.09;41.45;99696.16;4981954;28;19914;-89
2023/04/07 05:42:18;;;;;;;;;;;;;;;8.03;42.98;99691.81;4970736;28;19921;-86
2023/04/07 05:44:44;;;;;;;;;;;;;;;8.23;42.45;99682.94;4982402;28;19921;-88
2023/04/07 05:47:10;;;;;;;;;;;;;;;8.22;42.67;99689.97;4971022;28;20016;-88
2023/04/07 05:49:35;;;;;;;;;;;;;;;8.23;41.86;99688.19;4981601;28;19960;-88
2023/04/07 05:52:02;;;;;;;;;;;;;;;8.39;40.99;99700.38;4971408;28;19914;-88
2023/04/07 05:54:27;;;;;;;;;;;;;;;8.04;40.17;99698.81;4981435;28;19913;-89
2023/04/07 05:56:52;;;;;;;;;;;;;;;8.37;40.05;99699.53;4971183;28;19971;-89
2023/04/07 05:59:18;;;;;;;;;;;;;;;8.28;40.86;99696.06;4981140;28;19956;-90
2023/04/07 06:01:43;;;;;;;;;;;;;;;8.14;39.35;99704.03;4970865;28;19964;-92
2023/04/07 06:04:08;;;;;;;;;;;;;;;7.94;37.89;99699.75;4978190;28;19971;-90
2023/04/07 06:06:34;;;;;;;;;;;;;;;8.02;38.74;99700.56;4972674;28;20372;-90
2023/04/07 06:08:59;;;;;;;;;;;;;;;8.03;38.09;99704.06;4969516;28;20415;-88
2023/04/07 06:11:26;;;;;;;;;;;;;;;8.13;37.44;99700.53;4970914;28;19914;-88
2023/04/07 06:13:51;;;;;;;;;;;;;;;8.12;38.54;99705.78;4972052;28;19910;-88
2023/04/07 06:16:16;;;;;;;;;;;;;;;8.36;39.25;99702.16;4971240;28;19918;-88
2023/04/07 06:18:42;;;;;;;;;;;;;;;8.58;38.89;99705.56;4971533;28;19973;-89
2023/04/07 06:21:07;;;;;;;;;;;;;;;8.47;38.62;99700.38;4971284;28;19937;-88
2023/04/07 06:23:32;;;;;;;;;;;;;;;8.60;39.88;99711.66;4971829;28;19930;-87
2023/04/07 06:25:58;;;;;;;;;;;;;;;8.33;37.93;99708.31;4971744;28;19914;-87
2023/04/07 06:28:23;;;;;;;;;;;;;;;8.52;38.62;99709.09;4972123;28;19914;-87
2023/04/07 06:30:48;;;;;;;;;;;;;;;8.63;39.59;99714.28;4971755;28;19921;-86
2023/04/07 06:33:14;;;;;;;;;;;;;;;8.80;36.73;99715.94;4971316;28;19914;-87
2023/04/07 06:35:40;;;;;;;;;;;;;;;8.67;38.69;99715.16;4971476;28;19914;-86
2023/04/07 06:38:06;;;;;;;;;;;;;;;8.60;36.23;99717.81;4971238;28;19964;-86
2023/04/07 06:40:31;;;;;;;;;;;;;;;8.55;36.24;99718.72;4971867;28;19914;-87
2023/04/07 06:42:57;;;;;;;;;;;;;;;8.87;37.23;99721.13;4971309;28;19936;-86
2023/04/07 06:45:22;;;;;;;;;;;;;;;9.06;37.57;99719.22;4971847;28;19918;-86
2023/04/07 06:47:48;;;;;;;;;;;;;;;8.84;37.63;99723.78;4971210;28;19921;-86
2023/04/07 06:50:13;;;;;;;;;;;;;;;8.77;37.35;99720.34;4971199;28;19913;-86
2023/04/07 06:52:38;;;;;;;;;;;;;;;8.94;37.25;99714.06;4971166;28;19918;-86
2023/04/07 06:55:04;;;;;;;;;;;;;;;9.25;37.73;99721.69;4971410;28;19917;-86
2023/04/07 06:57:29;;;;;;;;;;;;;;;8.77;36.59;99728.22;4971385;28;20303;-85
2023/04/07 06:59:55;;;;;;;;;;;;;;;8.88;36.79;99728.16;4971458;28;19922;-87
2023/04/07 07:02:20;;;;;;;;;;;;;;;9.24;36.50;99733.13;4971151;28;19921;-86
2023/04/07 07:04:45;;;;;;;;;;;;;;;9.20;36.42;99734.88;4971480;28;19914;-86
2023/04/07 07:07:11;;;;;;;;;;;;;;;9.62;36.85;99731.84;4971162;28;20310;-87
2023/04/07 07:09:36;;;;;;;;;;;;;;;9.90;36.33;99729.81;4971333;28;20405;-86
2023/04/07 07:12:02;;;;;;;;;;;;;;;9.82;37.09;99732.53;4973276;28;19918;-86
2023/04/07 07:14:27;;;;;;;;;;;;;;;9.78;35.20;99743.13;4974910;28;19914;-88
2023/04/07 07:16:52;;;;;;;;;;;;;;;9.50;34.92;99739.00;4974394;28;19924;-86
2023/04/07 07:19:18;;;;;;;;;;;;;;;9.50;37.82;99743.41;4973738;28;19932;-88
2023/04/07 07:21:43;;;;;;;;;;;;;;;10.02;34.80;99740.22;4973377;28;20009;-88
2023/04/07 07:24:08;;;;;;;;;;;;;;;10.19;34.89;99741.75;4973909;28;19917;-89
2023/04/07 07:26:33;;;;;;;;;;;;;;;10.79;35.57;99738.31;4974375;28;19910;-88
2023/04/07 07:28:59;;;;;;;;;;;;;;;10.91;32.62;99739.91;4974331;28;19914;-86
2023/04/07 07:31:24;;;;;;;;;;;;;;;10.81;31.52;99738.28;4974473;28;20029;-88
2023/04/07 07:33:50;;;;;;;;;;;;;;;10.80;33.03;99739.16;4974408;28;19972;-87
2023/04/07 07:36:16;;;;;;;;;;;;;;;10.86;32.50;99739.06;4973560;28;19914;-89
2023/04/07 07:38:41;;;;;;;;;;;;;;;10.95;34.09;99732.78;4973726;28;19917;-89
2023/04/07 07:41:07;;;;;;;;;;;;;;;10.59;32.71;99738.59;4974266;28;19914;-87
2023/04/07 07:43:32;;;;;;;;;;;;;;;10.99;33.07;99729.22;4974422;28;19918;-87
2023/04/07 07:45:57;;;;;;;;;;;;;;;11.15;34.08;99727.19;4974267;28;19921;-89
2023/04/07 07:48:23;;;;;;;;;;;;;;;11.98;36.37;99728.31;4974075;28;19925;-90
2023/04/07 07:50:49;;;;;;;;;;;;;;;12.74;33.55;99730.19;4974105;28;19914;-89
2023/04/07 07:53:15;;;;;;;;;;;;;;;12.97;31.24;99718.22;4973883;28;20000;-89
2023/04/07 07:55:40;;;;;;;;;;;;;;;12.65;32.04;99714.53;4974221;28;20048;-90
2023/04/07 07:58:05;;;;;;;;;;;;;;;12.50;31.47;99721.06;4973852;28;19921;-89
2023/04/07 08:00:31;;;;;;;;;;;;;;;13.09;32.56;99717.91;4974259;28;19921;-89
2023/04/07 08:02:56;;;;;;;;;;;;;;;13.00;31.80;99715.47;4973432;28;20379;-89
2023/04/07 08:05:21;;;;;;;;;;;;;;;12.35;29.96;99717.84;4973745;28;19918;-89
2023/04/07 08:07:47;;;;;;;;;;;;;;;13.15;29.79;99704.50;4973465;28;19914;-89
2023/04/07 08:10:13;;;;;;;;;;;;;;;12.69;29.86;99717.06;4973777;28;19921;-90
2023/04/07 08:12:38;;;;;;;;;;;;;;;12.90;29.32;99712.19;4973860;28;19914;-88
2023/04/07 08:15:04;;;;;;;;;;;;;;;13.33;28.54;99707.59;4973413;28;20446;-88
2023/04/07 08:17:30;;;;;;;;;;;;;;;13.83;29.91;99708.03;4973518;28;20443;-89
2023/04/07 08:19:55;;;;;;;;;;;;;;;13.29;29.49;99713.88;4973255;28;19914;-89
2023/04/07 08:22:20;;;;;;;;;;;;;;;13.13;29.41;99708.09;4973314;28;19973;-89
2023/04/07 08:24:46;;;;;;;;;;;;;;;13.60;30.96;99709.53;4973009;28;19914;-89
2023/04/07 08:27:11;;;;;;;;;;;;;;;13.27;28.98;99703.34;4973517;28;19910;-89
2023/04/07 08:29:37;;;;;;;;;;;;;;;13.90;29.67;99704.31;4973374;28;20315;-89
2023/04/07 08:32:02;;;;;;;;;;;;;;;14.12;28.09;99701.03;4973215;28;19957;-86
2023/04/07 08:34:27;;;;;;;;;;;;;;;13.55;28.75;99705.28;4971105;28;20004;-91
2023/04/07 08:36:53;;;;;;;;;;;;;;;12.84;31.16;99697.31;4972687;28;19914;-90
2023/04/07 08:39:18;;;;;;;;;;;;;;;13.05;29.51;99701.22;4972616;28;20022;-91
2023/04/07 08:41:44;;;;;;;;;;;;;;;12.97;29.85;99691.72;4972414;28;19924;-90
2023/04/07 08:44:10;;;;;;;;;;;;;;;12.87;29.35;99699.03;4972247;28;20048;-89
2023/04/07 08:46:37;;;;;;;;;;;;;;;12.78;29.54;99692.19;4971996;28;19973;-90
2023/04/07 08:49:06;;;;;;;;;;;;;;;13.07;28.58;99687.94;4971169;28;19917;-88
2023/04/07 08:51:32;;;;;;;;;;;;;;;13.34;30.78;99690.81;4972694;28;19921;-88
2023/04/07 08:54:10;;;;;;;;;;;;;;;13.37;30.85;99696.03;4972637;28;20314;-88
2023/04/07 08:56:40;;;;;;;;;;;;;;;13.63;28.74;99694.47;4954727;28;20378;-92
2023/04/07 08:59:06;;;;;;;;;;;;;;;13.20;29.54;99691.16;4972143;28;20358;-89
2023/04/07 09:01:33;;;;;;;;;;;;;;;13.22;29.58;99697.25;4970562;28;20378;-91
2023/04/07 09:03:59;;;;;;;;;;;;;;;13.02;28.95;99689.81;4960917;28;19913;-91
2023/04/07 09:06:26;;;;;;;;;;;;;;;13.34;29.67;99689.03;4973841;28;20271;-89
2023/04/07 09:08:51;;;;;;;;;;;;;;;13.15;29.78;99693.06;4982184;28;19956;-88
2023/04/07 09:11:16;;;;;;;;;;;;;;;13.14;30.27;99689.50;4981915;28;19960;-89
2023/04/07 09:13:42;;;;;;;;;;;;;;;13.33;29.75;99681.09;4983754;28;19910;-91
2023/04/07 09:16:07;;;;;;;;;;;;;;;13.71;32.22;99682.72;4977577;28;20422;-89
2023/04/07 09:18:33;;;;;;;;;;;;;;;13.17;29.45;99683.28;4985351;28;19945;-88
2023/04/07 09:20:58;;;;;;;;;;;;;;;13.09;28.68;99691.41;4977686;28;19922;-88
2023/04/07 09:23:28;;;;;;;;;;;;;;;13.34;29.84;99694.31;4982773;28;19968;-88
2023/04/07 09:25:54;;;;;;;;;;;;;;;13.72;31.50;99687.13;4960236;28;20303;-89
2023/04/07 09:28:20;;;;;;;;;;;;;;;13.87;31.19;99690.25;4997291;28;19922;-91
2023/04/07 09:30:53;;;;;;;;;;;;;;;14.05;30.53;99681.75;4972474;28;19972;-91
2023/04/07 09:33:25;;;;;;;;;;;;;;;14.06;30.22;99685.31;4975338;28;20008;-88
2023/04/07 09:35:52;;;;;;;;;;;;;;;14.11;31.57;99681.56;4971504;28;19981;-87
2023/04/07 09:38:17;;;;;;;;;;;;;;;14.25;30.92;99672.34;4990373;28;19920;-88
2023/04/07 09:40:42;;;;;;;;;;;;;;;13.59;29.45;99672.47;4990817;28;19918;-87
2023/04/07 09:43:13;;;;;;;;;;;;;;;13.45;30.29;99682.59;4990470;28;20319;-87
2023/04/07 09:45:39;;;;;;;;;;;;;;;13.53;31.92;99672.63;4988630;28;19913;-90
2023/04/07 09:48:20;;;;;;;;;;;;;;;13.06;30.21;99670.31;4989824;28;19914;-85
2023/04/07 09:50:50;;;;;;;;;;;;;;;13.28;31.34;99669.75;5000029;28;20864;-86
2023/04/07 09:53:17;;;;;;;;;;;;;;;13.33;32.32;99673.13;4982969;28;19918;-87
2023/04/07 09:55:42;;;;;;;;;;;;;;;13.07;30.44;99670.28;4989866;28;19918;-89
2023/04/07 09:58:11;;;;;;;;;;;;;;;13.40;30.88;99666.81;4990960;28;19920;-87
2023/04/07 10:00:36;;;;;;;;;;;;;;;13.01;31.02;99673.09;4990837;28;19920;-86
2023/04/07 10:03:02;;;;;;;;;;;;;;;13.12;32.97;99675.44;4990681;28;19914;-86
2023/04/07 10:05:28;;;;;;;;;;;;;;;13.57;32.64;99675.16;4990606;28;19995;-88
2023/04/07 10:07:54;;;;;;;;;;;;;;;13.85;30.85;99676.19;4991122;28;19918;-86
2023/04/07 10:10:20;;;;;;;;;;;;;;;13.97;32.70;99674.03;4990165;28;19913;-87
2023/04/07 10:12:46;;;;;;;;;;;;;;;14.22;29.79;99675.09;4991068;28;20113;-86
2023/04/07 10:15:14;;;;;;;;;;;;;;;13.74;32.42;99672.03;4990253;28;19913;-86
2023/04/07 10:17:42;;;;;;;;;;;;;;;13.21;30.29;99674.34;4991087;28;19965;-87
2023/04/07 10:20:09;;;;;;;;;;;;;;;13.12;31.81;99677.25;4990744;28;19945;-85
2023/04/07 10:22:35;;;;;;;;;;;;;;;13.48;31.45;99677.19;4991069;28;19918;-86
2023/04/07 10:25:08;;;;;;;;;;;;;;;13.42;30.39;99673.81;4991389;28;19914;-86
2023/04/07 10:27:49;;;;;;;;;;;;;;;13.29;30.78;99664.41;4991451;28;19917;-87
2023/04/07 10:30:17;;;;;;;;;;;;;;;13.29;30.66;99682.09;4990896;28;19918;-88
2023/04/07 10:32:46;;;;;;;;;;;;;;;13.04;30.92;99670.34;4991193;28;19910;-89
2023/04/07 10:35:11;;;;;;;;;;;;;;;13.15;32.22;99666.56;4991579;28;19914;-89
2023/04/07 10:37:37;;;;;;;;;;;;;;;13.78;31.48;99668.41;4991188;28;20379;-89
2023/04/07 10:40:17;;;;;;;;;;;;;;;13.92;29.50;99675.09;4970514;28;19918;-90
2023/04/07 10:42:44;;;;;;;;;;;;;;;13.29;33.03;99669.72;4972136;28;19918;-89
2023/04/07 10:45:09;;;;;;;;;;;;;;;13.31;31.92;99678.47;4991474;28;19921;-90
2023/04/07 10:47:55;;;;;;;;;;;;;;;13.19;31.95;99665.56;4988740;28;19914;-86
2023/04/07 10:50:21;;;;;;;;;;;;;;;13.54;31.56;99664.63;4975013;28;19914;-88
2023/04/07 10:53:03;;;;;;;;;;;;;;;13.78;30.62;99668.41;4975668;28;19936;-88
2023/04/07 10:55:35;;;;;;;;;;;;;;;14.00;32.40;99658.97;4975196;28;20005;-88
2023/04/07 10:58:22;;;;;;;;;;;;;;;14.13;31.74;99663.84;4991539;28;19920;-87
2023/04/07 11:01:00;;;;;;;;;;;;;;;13.85;32.00;99653.16;4994766;28;20454;-87
2023/04/07 11:03:26;;;;;;;;;;;;;;;14.19;30.60;99662.78;4994477;28;20382;-87
2023/04/07 11:05:51;;;;;;;;;;;;;;;14.26;32.66;99652.88;4994113;28;19960;-88
2023/04/07 11:08:52;;;;;;;;;;;;;;;13.70;32.79;99657.16;4995119;28;19944;-88
2023/04/07 11:11:37;;;;;;;;;;;;;;;13.82;31.27;99655.06;4953655;29;19915;-88
2023/04/07 11:14:03;;;;;;;;;;;;;;;13.78;34.24;99659.59;4953118;29;19918;-87
2023/04/07 11:16:35;;;;;;;;;;;;;;;13.66;32.93;99662.59;4948269;29;20806;-89
2023/04/07 11:19:01;;;;;;;;;;;;;;;13.93;33.52;99652.94;4933456;29;19921;-88
2023/04/07 11:21:26;;;;;;;;;;;;;;;14.26;32.80;99647.56;4933385;29;20437;-89
2023/04/07 11:23:52;;;;;;;;;;;;;;;14.36;32.28;99649.00;4933536;29;19918;-88
2023/04/07 11:26:17;;;;;;;;;;;;;;;14.51;31.52;99639.69;4933275;29;19918;-87
2023/04/07 11:28:46;;;;;;;;;;;;;;;14.19;29.95;99643.34;4933027;29;20315;-89
2023/04/07 11:31:12;;;;;;;;;;;;;;;14.34;32.98;99640.22;4933773;29;19961;-90
2023/04/07 11:33:38;;;;;;;;;;;;;;;14.23;31.80;99618.47;4948695;29;19989;-90
2023/04/07 11:36:05;;;;;;;;;;;;;;;14.21;32.32;99642.41;4917189;29;20408;-91
2023/04/07 11:38:37;;;;;;;;;;;;;;;14.09;32.15;99637.47;4932865;29;19937;-90
2023/04/07 11:41:09;;;;;;;;;;;;;;;14.25;32.95;99630.75;4932998;29;19925;-90
2023/04/07 11:43:36;;;;;;;;;;;;;;;14.45;32.90;99627.47;4933046;29;20038;-88
2023/04/07 11:46:02;;;;;;;;;;;;;;;14.54;33.93;99630.78;4949872;28;20383;-89
2023/04/07 11:48:29;;;;;;;;;;;;;;;14.21;33.48;99633.56;4954103;28;19985;-91
2023/04/07 11:50:54;;;;;;;;;;;;;;;13.64;34.29;99638.78;4937109;29;19921;-92
2023/04/07 11:53:27;;;;;;;;;;;;;;;13.38;33.45;99636.84;4954647;28;19918;-89
2023/04/07 11:56:08;;;;;;;;;;;;;;;13.74;33.24;99628.75;4954092;28;20311;-87
2023/04/07 11:58:34;;;;;;;;;;;;;;;14.20;35.18;99623.88;4953378;28;19974;-88
2023/04/07 12:01:05;;;;;;;;;;;;;;;14.14;33.54;99622.28;4955174;28;19974;-89
2023/04/07 12:03:31;;;;;;;;;;;;;;;14.04;32.69;99627.00;4956050;28;19914;-88
2023/04/07 12:05:56;;;;;;;;;;;;;;;13.98;36.67;99611.28;4955977;28;19914;-87
2023/04/07 12:08:35;;;;;;;;;;;;;;;13.94;34.19;99618.44;4955880;28;19972;-91
2023/04/07 12:11:04;;;;;;;;;;;;;;;13.81;33.15;99624.13;4954803;28;19918;-89
2023/04/07 12:13:30;;;;;;;;;;;;;;;13.93;40.04;99619.38;4954466;28;19915;-86
2023/04/07 12:15:56;;;;;;;;;;;;;;;14.04;34.21;99623.47;4954923;28;20012;-87
2023/04/07 12:18:23;;;;;;;;;;;;;;;14.26;34.43;99615.72;4987833;28;19918;-88
2023/04/07 12:20:49;;;;;;;;;;;;;;;14.21;33.95;99617.63;4972411;28;19914;-87
2023/04/07 12:23:14;;;;;;;;;;;;;;;14.43;35.23;99604.56;4973050;28;19914;-88
2023/04/07 12:25:40;;;;;;;;;;;;;;;14.37;37.17;99623.34;4972052;28;19914;-87
2023/04/07 12:28:05;;;;;;;;;;;;;;;14.55;35.20;99611.25;4972777;28;19918;-86
2023/04/07 12:30:31;;;;;;;;;;;;;;;14.54;34.49;99618.34;4973257;28;19914;-89
2023/04/07 12:32:56;;;;;;;;;;;;;;;14.58;35.99;99616.47;4987356;28;20119;-86
2023/04/07 12:35:21;;;;;;;;;;;;;;;14.76;37.20;99609.72;4972673;28;19914;-88
2023/04/07 12:37:47;;;;;;;;;;;;;;;15.06;36.00;99607.81;4971929;28;19914;-88
2023/04/07 12:40:12;;;;;;;;;;;;;;;14.65;35.05;99608.28;4973036;28;19914;-87
2023/04/07 12:42:38;;;;;;;;;;;;;;;14.27;37.64;99604.19;4972127;28;19914;-87
2023/04/07 12:45:03;;;;;;;;;;;;;;;14.09;37.44;99601.19;4972834;28;19976;-88
2023/04/07 12:47:29;;;;;;;;;;;;;;;14.39;36.83;99590.53;4972487;28;19913;-89
2023/04/07 12:49:55;;;;;;;;;;;;;;;14.33;36.61;99598.69;4972848;28;19914;-88